sensor_id;sensor_type;location;lat;lon;timestamp;P1;durP1;ratioP1;P2;durP2;ratioP2
72037;SDS011;59900;50.788;12.904;2022-10-16T00:01:17;2.95;;;1.63;;
72037;SDS011;59900;50.788;12.904;2022-10-16T00:03:45;1.75;;;1.02;;
72037;SDS011;59900;50.788;12.904;2022-10-16T00:06:11;1.40;;;0.90;;
72037;SDS011;59900;50.788;12.904;2022-10-16T00:08:37;4.45;;;1.23;;
72037;SDS011;59900;50.788;12.904;2022-10-16T00:11:05;3.60;;;1.50;;
72037;SDS011;59900;50.788;12.904;2022-10-16T00:13:33;1.88;;;1.30;;
72037;SDS011;59900;50.788;12.904;2022-10-16T00:16:00;3.33;;;1.17;;
72037;SDS011;59900;50.788;12.904;2022-10-16T00:18:27;2.40;;;1.00;;
72037;SDS011;59900;50.788;12.904;2022-10-16T00:20:53;1.77;;;1.13;;
72037;SDS011;59900;50.788;12.904;2022-10-16T00:23:19;2.00;;;1.13;;
72037;SDS011;59900;50.788;12.904;2022-10-16T00:25:45;3.55;;;0.90;;
72037;SDS011;59900;50.788;12.904;2022-10-16T00:28:19;1.80;;;0.90;;
72037;SDS011;59900;50.788;12.904;2022-10-16T00:30:44;2.87;;;0.80;;
72037;SDS011;59900;50.788;12.904;2022-10-16T00:33:10;2.23;;;1.00;;
72037;SDS011;59900;50.788;12.904;2022-10-16T00:35:35;2.33;;;0.93;;
72037;SDS011;59900;50.788;12.904;2022-10-16T00:38:00;1.80;;;1.20;;
72037;SDS011;59900;50.788;12.904;2022-10-16T00:40:25;1.60;;;1.00;;
72037;SDS011;59900;50.788;12.904;2022-10-16T00:42:53;3.47;;;1.27;;
72037;SDS011;59900;50.788;12.904;2022-10-16T00:45:18;2.33;;;1.00;;
72037;SDS011;59900;50.788;12.904;2022-10-16T00:47:43;1.70;;;1.17;;
72037;SDS011;59900;50.788;12.904;2022-10-16T00:52:59;2.70;;;1.10;;
72037;SDS011;59900;50.788;12.904;2022-10-16T00:55:26;2.00;;;1.30;;
72037;SDS011;59900;50.788;12.904;2022-10-16T00:57:54;2.22;;;1.50;;
72037;SDS011;59900;50.788;12.904;2022-10-16T01:00:22;1.83;;;1.20;;
72037;SDS011;59900;50.788;12.904;2022-10-16T01:02:52;2.13;;;0.82;;
72037;SDS011;59900;50.788;12.904;2022-10-16T01:05:21;1.45;;;0.80;;
72037;SDS011;59900;50.788;12.904;2022-10-16T01:11:00;2.70;;;1.10;;
72037;SDS011;59900;50.788;12.904;2022-10-16T01:13:38;2.27;;;0.93;;
72037;SDS011;59900;50.788;12.904;2022-10-16T01:16:10;2.50;;;1.17;;
72037;SDS011;59900;50.788;12.904;2022-10-16T01:21:32;1.58;;;1.02;;
72037;SDS011;59900;50.788;12.904;2022-10-16T01:27:14;1.50;;;1.10;;
72037;SDS011;59900;50.788;12.904;2022-10-16T01:29:50;3.45;;;0.90;;
72037;SDS011;59900;50.788;12.904;2022-10-16T01:35:06;1.70;;;1.23;;
72037;SDS011;59900;50.788;12.904;2022-10-16T01:40:05;3.23;;;1.00;;
72037;SDS011;59900;50.788;12.904;2022-10-16T01:42:37;1.50;;;0.80;;
72037;SDS011;59900;50.788;12.904;2022-10-16T01:45:07;1.48;;;0.95;;
72037;SDS011;59900;50.788;12.904;2022-10-16T01:47:36;1.30;;;0.80;;
72037;SDS011;59900;50.788;12.904;2022-10-16T01:50:03;2.28;;;0.95;;
72037;SDS011;59900;50.788;12.904;2022-10-16T01:52:30;1.10;;;0.60;;
72037;SDS011;59900;50.788;12.904;2022-10-16T01:54:59;1.52;;;1.00;;
72037;SDS011;59900;50.788;12.904;2022-10-16T01:57:27;1.75;;;1.15;;
72037;SDS011;59900;50.788;12.904;2022-10-16T01:59:56;1.63;;;1.27;;
72037;SDS011;59900;50.788;12.904;2022-10-16T02:02:26;2.35;;;1.10;;
72037;SDS011;59900;50.788;12.904;2022-10-16T02:04:58;1.77;;;1.17;;
72037;SDS011;59900;50.788;12.904;2022-10-16T02:07:27;2.25;;;1.20;;
72037;SDS011;59900;50.788;12.904;2022-10-16T02:09:52;1.30;;;0.90;;
72037;SDS011;59900;50.788;12.904;2022-10-16T02:12:21;3.15;;;1.00;;
72037;SDS011;59900;50.788;12.904;2022-10-16T02:14:51;1.70;;;0.90;;
72037;SDS011;59900;50.788;12.904;2022-10-16T02:17:17;2.33;;;1.10;;
72037;SDS011;59900;50.788;12.904;2022-10-16T02:19:43;2.50;;;0.98;;
72037;SDS011;59900;50.788;12.904;2022-10-16T02:22:14;2.08;;;1.20;;
72037;SDS011;59900;50.788;12.904;2022-10-16T02:24:47;2.20;;;1.23;;
72037;SDS011;59900;50.788;12.904;2022-10-16T02:30:03;2.13;;;1.30;;
72037;SDS011;59900;50.788;12.904;2022-10-16T02:32:39;2.30;;;1.00;;
72037;SDS011;59900;50.788;12.904;2022-10-16T02:35:07;2.70;;;1.00;;
72037;SDS011;59900;50.788;12.904;2022-10-16T02:37:33;2.27;;;1.20;;
72037;SDS011;59900;50.788;12.904;2022-10-16T02:40:00;2.35;;;1.13;;
72037;SDS011;59900;50.788;12.904;2022-10-16T02:42:29;3.38;;;1.20;;
72037;SDS011;59900;50.788;12.904;2022-10-16T02:44:59;1.95;;;0.85;;
72037;SDS011;59900;50.788;12.904;2022-10-16T02:47:24;3.80;;;1.00;;
72037;SDS011;59900;50.788;12.904;2022-10-16T02:49:50;2.13;;;0.90;;
72037;SDS011;59900;50.788;12.904;2022-10-16T02:52:15;4.43;;;1.00;;
72037;SDS011;59900;50.788;12.904;2022-10-16T02:54:40;2.10;;;1.30;;
72037;SDS011;59900;50.788;12.904;2022-10-16T02:57:06;3.03;;;1.00;;
72037;SDS011;59900;50.788;12.904;2022-10-16T02:59:31;3.63;;;1.40;;
72037;SDS011;59900;50.788;12.904;2022-10-16T03:01:56;3.00;;;1.30;;
72037;SDS011;59900;50.788;12.904;2022-10-16T03:04:21;2.30;;;1.30;;
72037;SDS011;59900;50.788;12.904;2022-10-16T03:06:47;3.67;;;1.20;;
72037;SDS011;59900;50.788;12.904;2022-10-16T03:09:12;2.50;;;1.60;;
72037;SDS011;59900;50.788;12.904;2022-10-16T03:11:37;3.10;;;1.20;;
72037;SDS011;59900;50.788;12.904;2022-10-16T03:14:02;3.40;;;1.23;;
72037;SDS011;59900;50.788;12.904;2022-10-16T03:16:28;3.03;;;1.70;;
72037;SDS011;59900;50.788;12.904;2022-10-16T03:18:53;4.00;;;1.20;;
72037;SDS011;59900;50.788;12.904;2022-10-16T03:21:18;4.17;;;1.10;;
72037;SDS011;59900;50.788;12.904;2022-10-16T03:23:43;3.50;;;1.30;;
72037;SDS011;59900;50.788;12.904;2022-10-16T03:26:09;1.60;;;1.00;;
72037;SDS011;59900;50.788;12.904;2022-10-16T03:28:34;1.83;;;0.93;;
72037;SDS011;59900;50.788;12.904;2022-10-16T03:30:59;2.27;;;1.10;;
72037;SDS011;59900;50.788;12.904;2022-10-16T03:33:24;2.07;;;1.27;;
72037;SDS011;59900;50.788;12.904;2022-10-16T03:35:53;2.20;;;1.20;;
72037;SDS011;59900;50.788;12.904;2022-10-16T03:38:19;1.60;;;1.10;;
72037;SDS011;59900;50.788;12.904;2022-10-16T03:40:45;1.98;;;1.15;;
72037;SDS011;59900;50.788;12.904;2022-10-16T03:43:11;2.93;;;1.30;;
72037;SDS011;59900;50.788;12.904;2022-10-16T03:45:36;1.97;;;1.20;;
72037;SDS011;59900;50.788;12.904;2022-10-16T03:48:01;1.70;;;1.10;;
72037;SDS011;59900;50.788;12.904;2022-10-16T03:50:28;2.40;;;1.38;;
72037;SDS011;59900;50.788;12.904;2022-10-16T03:52:53;2.47;;;1.10;;
72037;SDS011;59900;50.788;12.904;2022-10-16T03:55:18;3.07;;;1.10;;
72037;SDS011;59900;50.788;12.904;2022-10-16T03:57:44;2.23;;;1.20;;
72037;SDS011;59900;50.788;12.904;2022-10-16T04:00:09;1.77;;;0.97;;
72037;SDS011;59900;50.788;12.904;2022-10-16T04:02:35;2.60;;;1.05;;
72037;SDS011;59900;50.788;12.904;2022-10-16T04:05:00;2.87;;;1.13;;
72037;SDS011;59900;50.788;12.904;2022-10-16T04:07:26;1.90;;;1.20;;
72037;SDS011;59900;50.788;12.904;2022-10-16T04:09:51;2.97;;;1.33;;
72037;SDS011;59900;50.788;12.904;2022-10-16T04:12:17;1.50;;;0.90;;
72037;SDS011;59900;50.788;12.904;2022-10-16T04:14:42;1.98;;;1.27;;
72037;SDS011;59900;50.788;12.904;2022-10-16T04:17:07;1.60;;;0.90;;
72037;SDS011;59900;50.788;12.904;2022-10-16T04:19:33;1.60;;;0.97;;
72037;SDS011;59900;50.788;12.904;2022-10-16T04:21:58;2.73;;;1.20;;
72037;SDS011;59900;50.788;12.904;2022-10-16T04:24:23;3.07;;;1.30;;
72037;SDS011;59900;50.788;12.904;2022-10-16T04:26:48;3.93;;;1.30;;
72037;SDS011;59900;50.788;12.904;2022-10-16T04:29:14;1.87;;;1.10;;
72037;SDS011;59900;50.788;12.904;2022-10-16T04:31:39;1.33;;;0.90;;
72037;SDS011;59900;50.788;12.904;2022-10-16T04:34:04;1.53;;;0.90;;
72037;SDS011;59900;50.788;12.904;2022-10-16T04:36:30;1.63;;;0.93;;
72037;SDS011;59900;50.788;12.904;2022-10-16T04:38:55;1.97;;;1.00;;
72037;SDS011;59900;50.788;12.904;2022-10-16T04:41:21;3.20;;;1.20;;
72037;SDS011;59900;50.788;12.904;2022-10-16T04:43:46;1.30;;;0.90;;
72037;SDS011;59900;50.788;12.904;2022-10-16T04:46:12;2.00;;;0.90;;
72037;SDS011;59900;50.788;12.904;2022-10-16T04:48:37;2.90;;;0.80;;
72037;SDS011;59900;50.788;12.904;2022-10-16T04:51:02;1.30;;;0.90;;
72037;SDS011;59900;50.788;12.904;2022-10-16T04:53:28;1.80;;;1.10;;
72037;SDS011;59900;50.788;12.904;2022-10-16T04:55:53;1.57;;;1.07;;
72037;SDS011;59900;50.788;12.904;2022-10-16T04:58:18;4.27;;;0.87;;
72037;SDS011;59900;50.788;12.904;2022-10-16T05:00:44;1.50;;;0.70;;
72037;SDS011;59900;50.788;12.904;2022-10-16T05:03:10;1.38;;;0.90;;
72037;SDS011;59900;50.788;12.904;2022-10-16T05:05:36;2.00;;;1.00;;
72037;SDS011;59900;50.788;12.904;2022-10-16T05:08:01;1.90;;;1.10;;
72037;SDS011;59900;50.788;12.904;2022-10-16T05:10:27;2.65;;;1.25;;
72037;SDS011;59900;50.788;12.904;2022-10-16T05:12:53;2.17;;;1.30;;
72037;SDS011;59900;50.788;12.904;2022-10-16T05:15:18;1.77;;;0.70;;
72037;SDS011;59900;50.788;12.904;2022-10-16T05:17:43;1.90;;;0.87;;
72037;SDS011;59900;50.788;12.904;2022-10-16T05:20:09;1.63;;;1.00;;
72037;SDS011;59900;50.788;12.904;2022-10-16T05:22:34;3.80;;;1.30;;
72037;SDS011;59900;50.788;12.904;2022-10-16T05:25:00;1.50;;;0.90;;
72037;SDS011;59900;50.788;12.904;2022-10-16T05:27:25;1.55;;;1.02;;
72037;SDS011;59900;50.788;12.904;2022-10-16T05:29:50;2.23;;;1.40;;
72037;SDS011;59900;50.788;12.904;2022-10-16T05:32:16;1.33;;;0.90;;
72037;SDS011;59900;50.788;12.904;2022-10-16T05:34:42;2.60;;;1.40;;
72037;SDS011;59900;50.788;12.904;2022-10-16T05:37:08;2.43;;;0.87;;
72037;SDS011;59900;50.788;12.904;2022-10-16T05:39:33;2.95;;;0.90;;
72037;SDS011;59900;50.788;12.904;2022-10-16T05:41:58;2.90;;;1.10;;
72037;SDS011;59900;50.788;12.904;2022-10-16T05:44:24;1.10;;;0.80;;
72037;SDS011;59900;50.788;12.904;2022-10-16T05:46:49;1.83;;;1.20;;
72037;SDS011;59900;50.788;12.904;2022-10-16T05:49:14;1.17;;;0.80;;
72037;SDS011;59900;50.788;12.904;2022-10-16T05:51:40;1.77;;;0.90;;
72037;SDS011;59900;50.788;12.904;2022-10-16T05:54:06;2.28;;;1.08;;
72037;SDS011;59900;50.788;12.904;2022-10-16T05:56:31;1.70;;;1.33;;
72037;SDS011;59900;50.788;12.904;2022-10-16T05:58:56;3.20;;;0.93;;
72037;SDS011;59900;50.788;12.904;2022-10-16T06:01:22;1.90;;;1.13;;
72037;SDS011;59900;50.788;12.904;2022-10-16T06:03:49;2.50;;;1.23;;
72037;SDS011;59900;50.788;12.904;2022-10-16T06:06:17;2.47;;;1.27;;
72037;SDS011;59900;50.788;12.904;2022-10-16T06:08:47;1.42;;;0.95;;
72037;SDS011;59900;50.788;12.904;2022-10-16T06:11:17;1.70;;;1.02;;
72037;SDS011;59900;50.788;12.904;2022-10-16T06:13:44;2.10;;;1.07;;
72037;SDS011;59900;50.788;12.904;2022-10-16T06:16:11;5.05;;;1.08;;
72037;SDS011;59900;50.788;12.904;2022-10-16T06:18:37;3.97;;;1.20;;
72037;SDS011;59900;50.788;12.904;2022-10-16T06:21:22;1.50;;;1.05;;
72037;SDS011;59900;50.788;12.904;2022-10-16T06:23:51;1.63;;;1.00;;
72037;SDS011;59900;50.788;12.904;2022-10-16T06:26:18;1.97;;;1.03;;
72037;SDS011;59900;50.788;12.904;2022-10-16T06:28:45;3.13;;;1.10;;
72037;SDS011;59900;50.788;12.904;2022-10-16T06:31:12;1.90;;;1.00;;
72037;SDS011;59900;50.788;12.904;2022-10-16T06:33:38;2.10;;;1.20;;
72037;SDS011;59900;50.788;12.904;2022-10-16T06:38:31;1.73;;;1.30;;
72037;SDS011;59900;50.788;12.904;2022-10-16T06:40:56;3.13;;;1.55;;
72037;SDS011;59900;50.788;12.904;2022-10-16T06:43:22;2.23;;;1.20;;
72037;SDS011;59900;50.788;12.904;2022-10-16T06:45:51;3.27;;;1.27;;
72037;SDS011;59900;50.788;12.904;2022-10-16T06:48:20;5.75;;;1.30;;
72037;SDS011;59900;50.788;12.904;2022-10-16T06:53:25;2.45;;;1.25;;
72037;SDS011;59900;50.788;12.904;2022-10-16T06:55:52;2.60;;;1.00;;
72037;SDS011;59900;50.788;12.904;2022-10-16T06:58:17;2.43;;;1.13;;
72037;SDS011;59900;50.788;12.904;2022-10-16T07:00:43;2.70;;;1.08;;
72037;SDS011;59900;50.788;12.904;2022-10-16T07:03:08;2.27;;;1.10;;
72037;SDS011;59900;50.788;12.904;2022-10-16T07:05:37;2.23;;;1.20;;
72037;SDS011;59900;50.788;12.904;2022-10-16T07:08:06;3.22;;;1.25;;
72037;SDS011;59900;50.788;12.904;2022-10-16T07:10:32;2.55;;;1.10;;
72037;SDS011;59900;50.788;12.904;2022-10-16T07:12:58;2.50;;;1.40;;
72037;SDS011;59900;50.788;12.904;2022-10-16T07:15:24;2.28;;;1.10;;
72037;SDS011;59900;50.788;12.904;2022-10-16T07:17:50;1.73;;;1.10;;
72037;SDS011;59900;50.788;12.904;2022-10-16T07:20:15;3.25;;;1.02;;
72037;SDS011;59900;50.788;12.904;2022-10-16T07:22:40;5.83;;;1.43;;
72037;SDS011;59900;50.788;12.904;2022-10-16T07:25:06;2.03;;;1.00;;
72037;SDS011;59900;50.788;12.904;2022-10-16T07:27:32;2.70;;;1.10;;
72037;SDS011;59900;50.788;12.904;2022-10-16T07:29:57;2.23;;;1.20;;
72037;SDS011;59900;50.788;12.904;2022-10-16T07:32:22;3.20;;;1.37;;
72037;SDS011;59900;50.788;12.904;2022-10-16T07:34:48;2.30;;;1.20;;
72037;SDS011;59900;50.788;12.904;2022-10-16T07:37:14;3.42;;;1.52;;
72037;SDS011;59900;50.788;12.904;2022-10-16T07:39:39;2.63;;;1.30;;
72037;SDS011;59900;50.788;12.904;2022-10-16T07:42:04;3.00;;;1.50;;
72037;SDS011;59900;50.788;12.904;2022-10-16T07:44:29;3.83;;;1.50;;
72037;SDS011;59900;50.788;12.904;2022-10-16T07:46:55;5.17;;;1.73;;
72037;SDS011;59900;50.788;12.904;2022-10-16T07:49:20;3.10;;;1.60;;
72037;SDS011;59900;50.788;12.904;2022-10-16T07:51:45;3.27;;;1.67;;
72037;SDS011;59900;50.788;12.904;2022-10-16T07:54:11;3.13;;;1.37;;
72037;SDS011;59900;50.788;12.904;2022-10-16T07:56:36;3.50;;;1.40;;
72037;SDS011;59900;50.788;12.904;2022-10-16T07:59:01;4.17;;;1.30;;
72037;SDS011;59900;50.788;12.904;2022-10-16T08:01:27;3.53;;;1.23;;
72037;SDS011;59900;50.788;12.904;2022-10-16T08:03:52;6.00;;;1.70;;
72037;SDS011;59900;50.788;12.904;2022-10-16T08:06:18;3.38;;;1.40;;
72037;SDS011;59900;50.788;12.904;2022-10-16T08:08:46;2.90;;;1.23;;
72037;SDS011;59900;50.788;12.904;2022-10-16T08:11:12;3.28;;;1.40;;
72037;SDS011;59900;50.788;12.904;2022-10-16T08:13:39;2.78;;;1.50;;
72037;SDS011;59900;50.788;12.904;2022-10-16T08:16:04;2.47;;;1.13;;
72037;SDS011;59900;50.788;12.904;2022-10-16T08:18:34;2.67;;;1.63;;
72037;SDS011;59900;50.788;12.904;2022-10-16T08:21:00;2.50;;;1.30;;
72037;SDS011;59900;50.788;12.904;2022-10-16T08:23:26;2.17;;;1.30;;
72037;SDS011;59900;50.788;12.904;2022-10-16T08:25:53;5.57;;;1.48;;
72037;SDS011;59900;50.788;12.904;2022-10-16T08:28:19;3.67;;;1.55;;
72037;SDS011;59900;50.788;12.904;2022-10-16T08:30:45;4.22;;;1.73;;
72037;SDS011;59900;50.788;12.904;2022-10-16T08:33:10;3.27;;;1.60;;
72037;SDS011;59900;50.788;12.904;2022-10-16T08:35:36;2.10;;;1.10;;
72037;SDS011;59900;50.788;12.904;2022-10-16T08:38:04;4.53;;;1.60;;
72037;SDS011;59900;50.788;12.904;2022-10-16T08:40:31;4.32;;;1.20;;
72037;SDS011;59900;50.788;12.904;2022-10-16T08:45:55;2.47;;;1.17;;
72037;SDS011;59900;50.788;12.904;2022-10-16T08:51:18;2.35;;;1.30;;
72037;SDS011;59900;50.788;12.904;2022-10-16T08:56:27;3.65;;;1.50;;
72037;SDS011;59900;50.788;12.904;2022-10-16T08:58:52;4.97;;;1.50;;
72037;SDS011;59900;50.788;12.904;2022-10-16T09:01:19;2.75;;;1.33;;
72037;SDS011;59900;50.788;12.904;2022-10-16T09:06:58;3.15;;;1.38;;
72037;SDS011;59900;50.788;12.904;2022-10-16T09:20:44;3.50;;;1.30;;
72037;SDS011;59900;50.788;12.904;2022-10-16T09:23:21;5.65;;;1.23;;
72037;SDS011;59900;50.788;12.904;2022-10-16T09:25:51;3.42;;;1.30;;
72037;SDS011;59900;50.788;12.904;2022-10-16T09:28:18;3.95;;;1.50;;
72037;SDS011;59900;50.788;12.904;2022-10-16T09:30:44;1.73;;;1.00;;
72037;SDS011;59900;50.788;12.904;2022-10-16T09:33:11;4.60;;;1.67;;
72037;SDS011;59900;50.788;12.904;2022-10-16T09:35:39;3.40;;;1.50;;
72037;SDS011;59900;50.788;12.904;2022-10-16T09:38:09;2.55;;;1.20;;
72037;SDS011;59900;50.788;12.904;2022-10-16T09:40:46;2.10;;;1.30;;
72037;SDS011;59900;50.788;12.904;2022-10-16T09:43:16;2.50;;;1.40;;
72037;SDS011;59900;50.788;12.904;2022-10-16T09:45:56;2.53;;;1.10;;
72037;SDS011;59900;50.788;12.904;2022-10-16T09:48:28;3.42;;;1.70;;
72037;SDS011;59900;50.788;12.904;2022-10-16T09:51:03;3.47;;;1.20;;
72037;SDS011;59900;50.788;12.904;2022-10-16T09:53:43;2.25;;;1.20;;
72037;SDS011;59900;50.788;12.904;2022-10-16T09:56:10;1.87;;;1.00;;
72037;SDS011;59900;50.788;12.904;2022-10-16T09:58:41;2.85;;;1.02;;
72037;SDS011;59900;50.788;12.904;2022-10-16T10:01:11;1.92;;;1.10;;
72037;SDS011;59900;50.788;12.904;2022-10-16T10:03:38;2.88;;;1.50;;
72037;SDS011;59900;50.788;12.904;2022-10-16T10:11:35;2.58;;;1.13;;
72037;SDS011;59900;50.788;12.904;2022-10-16T10:17:06;2.20;;;1.30;;
72037;SDS011;59900;50.788;12.904;2022-10-16T10:19:39;2.53;;;1.30;;
72037;SDS011;59900;50.788;12.904;2022-10-16T10:22:28;5.97;;;1.93;;
72037;SDS011;59900;50.788;12.904;2022-10-16T10:25:39;3.63;;;1.40;;
72037;SDS011;59900;50.788;12.904;2022-10-16T10:27:51;3.55;;;1.40;;
72037;SDS011;59900;50.788;12.904;2022-10-16T10:33:09;5.25;;;1.52;;
72037;SDS011;59900;50.788;12.904;2022-10-16T10:35:43;4.30;;;1.50;;
72037;SDS011;59900;50.788;12.904;2022-10-16T10:47:01;2.60;;;1.38;;
72037;SDS011;59900;50.788;12.904;2022-10-16T10:55:15;2.60;;;1.40;;
72037;SDS011;59900;50.788;12.904;2022-10-16T10:58:06;4.32;;;1.40;;
72037;SDS011;59900;50.788;12.904;2022-10-16T11:00:54;2.22;;;1.25;;
72037;SDS011;59900;50.788;12.904;2022-10-16T11:06:18;3.45;;;1.30;;
72037;SDS011;59900;50.788;12.904;2022-10-16T11:08:57;2.63;;;1.33;;
72037;SDS011;59900;50.788;12.904;2022-10-16T11:11:32;2.67;;;1.30;;
72037;SDS011;59900;50.788;12.904;2022-10-16T11:14:09;4.00;;;1.38;;
72037;SDS011;59900;50.788;12.904;2022-10-16T11:16:43;3.43;;;1.30;;
72037;SDS011;59900;50.788;12.904;2022-10-16T11:25:04;3.00;;;1.50;;
72037;SDS011;59900;50.788;12.904;2022-10-16T11:30:14;2.47;;;1.30;;
72037;SDS011;59900;50.788;12.904;2022-10-16T11:35:38;2.92;;;1.58;;
72037;SDS011;59900;50.788;12.904;2022-10-16T11:38:09;3.63;;;1.50;;
72037;SDS011;59900;50.788;12.904;2022-10-16T11:40:40;5.15;;;1.40;;
72037;SDS011;59900;50.788;12.904;2022-10-16T11:45:39;2.28;;;1.20;;
72037;SDS011;59900;50.788;12.904;2022-10-16T11:48:31;2.17;;;1.30;;
72037;SDS011;59900;50.788;12.904;2022-10-16T11:51:05;2.88;;;1.40;;
72037;SDS011;59900;50.788;12.904;2022-10-16T11:56:28;2.37;;;1.03;;
72037;SDS011;59900;50.788;12.904;2022-10-16T11:59:01;3.33;;;1.30;;
72037;SDS011;59900;50.788;12.904;2022-10-16T12:01:33;3.15;;;1.50;;
72037;SDS011;59900;50.788;12.904;2022-10-16T12:07:01;2.53;;;1.30;;
72037;SDS011;59900;50.788;12.904;2022-10-16T12:09:32;3.50;;;1.33;;
72037;SDS011;59900;50.788;12.904;2022-10-16T12:12:01;2.85;;;1.42;;
72037;SDS011;59900;50.788;12.904;2022-10-16T12:19:19;2.63;;;1.10;;
72037;SDS011;59900;50.788;12.904;2022-10-16T12:21:46;2.88;;;1.33;;
72037;SDS011;59900;50.788;12.904;2022-10-16T12:30:04;3.03;;;1.23;;
72037;SDS011;59900;50.788;12.904;2022-10-16T12:32:32;2.00;;;1.00;;
72037;SDS011;59900;50.788;12.904;2022-10-16T12:35:00;3.03;;;1.38;;
72037;SDS011;59900;50.788;12.904;2022-10-16T12:37:34;3.78;;;1.20;;
72037;SDS011;59900;50.788;12.904;2022-10-16T12:40:11;3.33;;;1.10;;
72037;SDS011;59900;50.788;12.904;2022-10-16T12:42:57;2.15;;;1.02;;
72037;SDS011;59900;50.788;12.904;2022-10-16T12:45:30;1.95;;;1.15;;
72037;SDS011;59900;50.788;12.904;2022-10-16T12:47:58;2.63;;;1.40;;
72037;SDS011;59900;50.788;12.904;2022-10-16T12:50:33;1.73;;;1.23;;
72037;SDS011;59900;50.788;12.904;2022-10-16T12:53:00;1.73;;;0.93;;
72037;SDS011;59900;50.788;12.904;2022-10-16T12:55:27;5.45;;;1.40;;
72037;SDS011;59900;50.788;12.904;2022-10-16T12:58:13;2.80;;;1.00;;
72037;SDS011;59900;50.788;12.904;2022-10-16T13:00:54;2.63;;;1.10;;
72037;SDS011;59900;50.788;12.904;2022-10-16T13:03:29;2.17;;;1.25;;
72037;SDS011;59900;50.788;12.904;2022-10-16T13:06:02;2.60;;;1.30;;
72037;SDS011;59900;50.788;12.904;2022-10-16T13:08:35;3.60;;;1.15;;
72037;SDS011;59900;50.788;12.904;2022-10-16T13:11:24;1.92;;;1.10;;
72037;SDS011;59900;50.788;12.904;2022-10-16T13:19:35;3.07;;;1.70;;
72037;SDS011;59900;50.788;12.904;2022-10-16T13:30:24;2.15;;;1.05;;
72037;SDS011;59900;50.788;12.904;2022-10-16T13:33:01;2.80;;;1.30;;
72037;SDS011;59900;50.788;12.904;2022-10-16T13:35:30;2.53;;;1.30;;
72037;SDS011;59900;50.788;12.904;2022-10-16T13:38:13;2.90;;;1.10;;
72037;SDS011;59900;50.788;12.904;2022-10-16T13:41:03;2.58;;;1.33;;
72037;SDS011;59900;50.788;12.904;2022-10-16T13:46:07;1.93;;;0.90;;
72037;SDS011;59900;50.788;12.904;2022-10-16T13:48:38;3.70;;;1.40;;
72037;SDS011;59900;50.788;12.904;2022-10-16T13:53:39;2.15;;;1.20;;
72037;SDS011;59900;50.788;12.904;2022-10-16T13:56:06;2.38;;;1.40;;
72037;SDS011;59900;50.788;12.904;2022-10-16T13:58:40;1.98;;;1.33;;
72037;SDS011;59900;50.788;12.904;2022-10-16T14:01:15;2.65;;;1.45;;
72037;SDS011;59900;50.788;12.904;2022-10-16T14:03:43;4.37;;;1.30;;
72037;SDS011;59900;50.788;12.904;2022-10-16T14:06:17;2.42;;;1.23;;
72037;SDS011;59900;50.788;12.904;2022-10-16T14:08:48;2.05;;;1.17;;
72037;SDS011;59900;50.788;12.904;2022-10-16T14:11:21;3.08;;;1.30;;
72037;SDS011;59900;50.788;12.904;2022-10-16T14:13:48;4.63;;;1.30;;
72037;SDS011;59900;50.788;12.904;2022-10-16T14:16:16;2.80;;;1.43;;
72037;SDS011;59900;50.788;12.904;2022-10-16T14:18:46;2.13;;;1.33;;
72037;SDS011;59900;50.788;12.904;2022-10-16T14:21:38;5.47;;;1.20;;
72037;SDS011;59900;50.788;12.904;2022-10-16T14:24:11;2.13;;;0.90;;
72037;SDS011;59900;50.788;12.904;2022-10-16T14:26:44;5.18;;;1.33;;
72037;SDS011;59900;50.788;12.904;2022-10-16T14:29:11;4.83;;;1.40;;
72037;SDS011;59900;50.788;12.904;2022-10-16T14:31:39;3.25;;;1.10;;
72037;SDS011;59900;50.788;12.904;2022-10-16T14:34:22;7.18;;;1.60;;
72037;SDS011;59900;50.788;12.904;2022-10-16T14:36:52;1.88;;;1.20;;
72037;SDS011;59900;50.788;12.904;2022-10-16T14:39:19;2.90;;;1.23;;
72037;SDS011;59900;50.788;12.904;2022-10-16T14:41:47;1.92;;;1.20;;
72037;SDS011;59900;50.788;12.904;2022-10-16T14:44:13;1.90;;;1.00;;
72037;SDS011;59900;50.788;12.904;2022-10-16T14:46:42;1.70;;;1.00;;
72037;SDS011;59900;50.788;12.904;2022-10-16T14:51:34;2.00;;;1.00;;
72037;SDS011;59900;50.788;12.904;2022-10-16T14:54:00;4.33;;;1.23;;
72037;SDS011;59900;50.788;12.904;2022-10-16T14:56:45;2.30;;;0.98;;
72037;SDS011;59900;50.788;12.904;2022-10-16T14:59:17;3.55;;;1.40;;
72037;SDS011;59900;50.788;12.904;2022-10-16T15:01:44;2.55;;;1.65;;
72037;SDS011;59900;50.788;12.904;2022-10-16T15:04:11;3.50;;;1.30;;
72037;SDS011;59900;50.788;12.904;2022-10-16T15:06:37;2.43;;;1.53;;
72037;SDS011;59900;50.788;12.904;2022-10-16T15:09:03;2.90;;;1.60;;
72037;SDS011;59900;50.788;12.904;2022-10-16T15:11:28;2.10;;;1.10;;
72037;SDS011;59900;50.788;12.904;2022-10-16T15:13:55;2.50;;;1.05;;
72037;SDS011;59900;50.788;12.904;2022-10-16T15:16:21;2.50;;;1.30;;
72037;SDS011;59900;50.788;12.904;2022-10-16T15:18:46;3.10;;;1.50;;
72037;SDS011;59900;50.788;12.904;2022-10-16T15:21:19;3.10;;;1.20;;
72037;SDS011;59900;50.788;12.904;2022-10-16T15:23:56;4.97;;;1.40;;
72037;SDS011;59900;50.788;12.904;2022-10-16T15:26:22;2.70;;;1.15;;
72037;SDS011;59900;50.788;12.904;2022-10-16T15:28:49;3.90;;;1.40;;
72037;SDS011;59900;50.788;12.904;2022-10-16T15:31:17;3.70;;;1.27;;
72037;SDS011;59900;50.788;12.904;2022-10-16T15:33:43;2.00;;;1.10;;
72037;SDS011;59900;50.788;12.904;2022-10-16T15:36:08;3.70;;;1.27;;
72037;SDS011;59900;50.788;12.904;2022-10-16T15:38:34;3.17;;;1.30;;
72037;SDS011;59900;50.788;12.904;2022-10-16T15:40:59;2.50;;;1.23;;
72037;SDS011;59900;50.788;12.904;2022-10-16T15:43:24;3.17;;;1.00;;
72037;SDS011;59900;50.788;12.904;2022-10-16T15:46:03;3.25;;;1.10;;
72037;SDS011;59900;50.788;12.904;2022-10-16T15:48:31;3.57;;;1.37;;
72037;SDS011;59900;50.788;12.904;2022-10-16T15:50:57;5.07;;;1.55;;
72037;SDS011;59900;50.788;12.904;2022-10-16T15:53:22;5.47;;;1.20;;
72037;SDS011;59900;50.788;12.904;2022-10-16T15:55:47;4.38;;;1.45;;
72037;SDS011;59900;50.788;12.904;2022-10-16T15:58:13;5.53;;;1.47;;
72037;SDS011;59900;50.788;12.904;2022-10-16T16:00:38;3.43;;;1.53;;
72037;SDS011;59900;50.788;12.904;2022-10-16T16:03:03;4.17;;;1.70;;
72037;SDS011;59900;50.788;12.904;2022-10-16T16:05:30;3.53;;;1.70;;
72037;SDS011;59900;50.788;12.904;2022-10-16T16:07:56;3.27;;;1.60;;
72037;SDS011;59900;50.788;12.904;2022-10-16T16:10:21;5.13;;;1.80;;
72037;SDS011;59900;50.788;12.904;2022-10-16T16:12:47;4.23;;;1.80;;
72037;SDS011;59900;50.788;12.904;2022-10-16T16:15:16;6.28;;;1.80;;
72037;SDS011;59900;50.788;12.904;2022-10-16T16:17:42;4.07;;;2.20;;
72037;SDS011;59900;50.788;12.904;2022-10-16T16:20:09;6.07;;;2.50;;
72037;SDS011;59900;50.788;12.904;2022-10-16T16:22:35;6.07;;;2.00;;
72037;SDS011;59900;50.788;12.904;2022-10-16T16:25:00;4.30;;;2.10;;
72037;SDS011;59900;50.788;12.904;2022-10-16T16:27:25;4.80;;;2.30;;
72037;SDS011;59900;50.788;12.904;2022-10-16T16:29:50;4.37;;;1.90;;
72037;SDS011;59900;50.788;12.904;2022-10-16T16:32:16;5.40;;;1.80;;
72037;SDS011;59900;50.788;12.904;2022-10-16T16:34:41;5.07;;;1.95;;
72037;SDS011;59900;50.788;12.904;2022-10-16T16:37:07;4.60;;;1.97;;
72037;SDS011;59900;50.788;12.904;2022-10-16T16:39:32;6.43;;;2.23;;
72037;SDS011;59900;50.788;12.904;2022-10-16T16:41:57;5.80;;;2.57;;
72037;SDS011;59900;50.788;12.904;2022-10-16T16:44:27;5.03;;;2.47;;
72037;SDS011;59900;50.788;12.904;2022-10-16T16:46:53;6.97;;;2.50;;
72037;SDS011;59900;50.788;12.904;2022-10-16T16:49:19;5.03;;;2.28;;